This is the latest recevied weather packets stored in our database for station/object SP1BMW-13. If no packets are shown the sender has not sent any weather packets the latest 10 day(s).
| Time | Temp. | Humidity | Pressure | Rain* | Wind** | Luminosity | Snow |
|---|---|---|---|---|---|---|---|
| 1777288971 | 15.56° C | 29% | 1022.1 hPa | 0 mm | 2.24 m/s, 215° | 666 W/m² | - |
| 1777288911 | 15.56° C | 31% | 1022.1 hPa | 0 mm | 1.34 m/s, 247° | 667 W/m² | - |
| 1777288851 | 15.56° C | 32% | 1022 hPa | 0 mm | 1.79 m/s, 278° | 666 W/m² | - |
| 1777288791 | 15.56° C | 31% | 1022 hPa | 0 mm | 1.79 m/s, 229° | 665 W/m² | - |
| 1777288731 | 15.56° C | 32% | 1022.1 hPa | 0 mm | 3.58 m/s, 289° | 665 W/m² | - |
| 1777288671 | 15.56° C | 32% | 1021.9 hPa | 0 mm | 1.34 m/s, 356° | 669 W/m² | - |
| 1777288611 | 15.56° C | 29% | 1022.3 hPa | 0 mm | 2.24 m/s, 7° | 669 W/m² | - |
| 1777288551 | 15.56° C | 30% | 1022 hPa | 0 mm | 1.34 m/s, 179° | 668 W/m² | - |
| 1777288491 | 15.56° C | 31% | 1022.1 hPa | 0 mm | 1.34 m/s, 320° | 667 W/m² | - |
| 1777288431 | 15.56° C | 31% | 1022.1 hPa | 0 mm | 1.79 m/s, 281° | 668 W/m² | - |
| 1777288371 | 15.56° C | 34% | 1022.1 hPa | 0 mm | 0.45 m/s, 242° | 668 W/m² | - |
| 1777288311 | 15.56° C | 31% | 1022.1 hPa | 0 mm | 0 m/s | 667 W/m² | - |
| 1777288251 | 15.56° C | 30% | 1022 hPa | 0 mm | 1.34 m/s, 274° | 668 W/m² | - |
| 1777288191 | 15.56° C | 31% | 1022.2 hPa | 0 mm | 1.79 m/s, 289° | 670 W/m² | - |
| 1777288131 | 15.56° C | 31% | 1022 hPa | 0 mm | 1.34 m/s, 226° | 669 W/m² | - |
| 1777288071 | 15.56° C | 30% | 1021.9 hPa | 0 mm | 2.24 m/s, 257° | 664 W/m² | - |
| 1777288011 | 15.56° C | 32% | 1022.1 hPa | 0 mm | 1.79 m/s, 301° | 662 W/m² | - |
| 1777287952 | 15.56° C | 30% | 1021.9 hPa | 0 mm | 3.13 m/s, 297° | 664 W/m² | - |
| 1777287891 | 15.56° C | 34% | 1022.1 hPa | 0 mm | 1.79 m/s, 295° | 667 W/m² | - |
| 1777287832 | 16.11° C | 33% | 1022 hPa | 0 mm | 1.79 m/s, 335° | 668 W/m² | - |
| 1777287772 | 16.11° C | 32% | 1022.2 hPa | 0 mm | 2.24 m/s, 276° | 665 W/m² | - |
| 1777287712 | 16.11° C | 33% | 1022 hPa | 0 mm | 2.24 m/s, 302° | 664 W/m² | - |
| 1777287651 | 15.56° C | 34% | 1021.8 hPa | 0 mm | 1.79 m/s, 320° | 665 W/m² | - |
| 1777287591 | 15.56° C | 32% | 1022.1 hPa | 0 mm | 0 m/s | 666 W/m² | - |
| 1777287531 | 15.56° C | 32% | 1022.1 hPa | 0 mm | 2.24 m/s, 256° | 666 W/m² | - |
* Rain latest hour (hover to see other rain measurements)
** Current wind speed in m/s (hover to see current wind gust speed)